Bramham, United Kingdom
Current Conditions -  °F | °C
As of 9:20 AM on Friday 24 Oct 2014 (Local Time) from EGNM Reporting Station
Broken Clouds Broken Clouds  
Wind Chill: 10°   Ceiling: 2800
Heat Index: 10°   Visibility: 6mi
Dew Point: 10°   Wind: 5mph
Humidity: 100%   Direction: 250°WSW
Pressure: 29.85"   Gusts: NA
Location:  53.88°N, 1.35°W
Report Text: EGNM 240820Z 25004KT 210V270 9999 FEW012 BKN028 10/10 Q1011
Loading
Personal Weather Stations






























Interactive Weather Map
Tropical Storm Tracking
New forecast layout! Learn more

10-Day Weather Forecast

Advertisements
Track Severe Weather on mobile